createdAt,value
2022-09-20T00:01:10.148Z,2.87
2022-09-20T00:03:41.655Z,3.40
2022-09-20T00:06:15.414Z,2.40
2022-09-20T00:08:43.642Z,1.70
2022-09-20T00:11:12.708Z,1.70
2022-09-20T00:13:39.681Z,1.60
2022-09-20T00:16:07.997Z,1.43
2022-09-20T00:18:34.778Z,1.60
2022-09-20T00:21:06.726Z,1.80
2022-09-20T00:23:38.933Z,1.90
2022-09-20T00:26:06.047Z,1.60
2022-09-20T00:28:34.780Z,1.70
2022-09-20T00:31:02.701Z,1.50
2022-09-20T00:33:49.577Z,2.20
2022-09-20T00:36:16.808Z,2.10
2022-09-20T00:38:43.545Z,2.43
2022-09-20T00:41:10.130Z,2.13
2022-09-20T00:43:44.082Z,1.40
2022-09-20T00:46:23.404Z,1.87
2022-09-20T00:48:52.063Z,2.03
2022-09-20T00:51:23.012Z,1.60
2022-09-20T00:53:50.234Z,2.00
2022-09-20T00:56:21.164Z,1.50
2022-09-20T00:58:51.616Z,2.10
2022-09-20T01:01:18.639Z,2.23
2022-09-20T01:03:49.846Z,2.00
2022-09-20T01:06:16.944Z,1.63
2022-09-20T01:08:47.509Z,1.70
2022-09-20T01:11:15.010Z,1.60
2022-09-20T01:13:41.735Z,1.63
2022-09-20T01:16:08.685Z,2.00
2022-09-20T01:18:36.710Z,1.60
2022-09-20T01:21:04.280Z,1.90
2022-09-20T01:23:58.462Z,2.30
2022-09-20T01:26:37.193Z,2.03
2022-09-20T01:29:12.768Z,2.27
2022-09-20T01:31:45.246Z,2.57
2022-09-20T01:34:14.657Z,2.10
2022-09-20T01:36:49.583Z,2.13
2022-09-20T01:39:32.443Z,2.50
2022-09-20T01:42:00.086Z,1.93
2022-09-20T01:44:32.832Z,2.17
2022-09-20T01:47:05.651Z,2.63
2022-09-20T01:49:48.259Z,2.60
2022-09-20T01:52:17.893Z,2.30
2022-09-20T01:54:59.715Z,2.83
2022-09-20T01:57:35.521Z,2.67
2022-09-20T02:00:08.925Z,2.60
2022-09-20T02:02:47.778Z,2.80
2022-09-20T02:05:18.435Z,2.63
2022-09-20T02:08:04.175Z,2.00
2022-09-20T02:10:34.803Z,3.00
2022-09-20T02:13:04.022Z,2.60
2022-09-20T02:15:48.792Z,2.67
2022-09-20T02:18:21.629Z,2.27
2022-09-20T02:20:52.176Z,2.30
2022-09-20T02:23:22.321Z,2.37
2022-09-20T02:26:00.959Z,2.33
2022-09-20T02:28:42.931Z,2.63
2022-09-20T02:31:22.391Z,2.30
2022-09-20T02:33:52.118Z,2.10
2022-09-20T02:36:36.920Z,2.27
2022-09-20T02:39:17.212Z,2.20
2022-09-20T02:41:59.367Z,2.37
2022-09-20T02:44:44.912Z,2.00
2022-09-20T02:47:31.254Z,1.93
2022-09-20T02:50:03.585Z,2.43
2022-09-20T02:52:33.703Z,2.13
2022-09-20T02:55:05.043Z,1.97
2022-09-20T02:57:45.311Z,2.20
2022-09-20T03:00:19.834Z,2.00
2022-09-20T03:02:53.124Z,2.30
2022-09-20T03:05:23.117Z,1.73
2022-09-20T03:08:08.730Z,1.97
2022-09-20T03:10:56.247Z,2.03
2022-09-20T03:13:22.804Z,2.30
2022-09-20T03:15:50.039Z,2.17
2022-09-20T03:18:29.059Z,2.10
2022-09-20T03:21:03.917Z,2.13
2022-09-20T03:23:37.730Z,2.27
2022-09-20T03:26:12.380Z,2.40
2022-09-20T03:28:41.981Z,2.23
2022-09-20T03:31:11.551Z,2.30
2022-09-20T03:33:38.087Z,2.53
2022-09-20T03:36:23.473Z,2.40
2022-09-20T03:39:19.946Z,2.70
2022-09-20T03:42:05.022Z,2.27
2022-09-20T03:44:50.420Z,2.53
2022-09-20T03:47:33.908Z,2.50
2022-09-20T03:50:06.992Z,2.10
2022-09-20T03:52:53.047Z,2.00
2022-09-20T03:55:31.818Z,2.33
2022-09-20T03:58:09.218Z,2.37
2022-09-20T04:00:49.958Z,2.70
2022-09-20T04:03:32.826Z,2.47
2022-09-20T04:06:12.499Z,2.77
2022-09-20T04:08:40.312Z,2.37
2022-09-20T04:11:25.606Z,2.20
2022-09-20T04:13:59.755Z,1.90
2022-09-20T04:16:37.849Z,2.53
2022-09-20T04:19:12.455Z,2.50
2022-09-20T04:21:45.896Z,2.23
2022-09-20T04:24:18.123Z,1.87
2022-09-20T04:26:46.537Z,2.30
2022-09-20T04:29:24.025Z,2.53
2022-09-20T04:32:09.805Z,2.10
2022-09-20T04:35:26.151Z,2.10
2022-09-20T04:37:53.469Z,2.07
2022-09-20T04:40:37.483Z,2.00
2022-09-20T04:43:07.097Z,2.30
2022-09-20T04:45:37.288Z,2.00
2022-09-20T04:48:17.363Z,2.20
2022-09-20T04:51:02.727Z,2.30
2022-09-20T04:53:49.024Z,2.33
2022-09-20T04:56:34.705Z,1.73
2022-09-20T04:59:22.133Z,1.70
2022-09-20T05:02:29.671Z,2.20
2022-09-20T05:05:15.418Z,1.80
2022-09-20T05:07:50.241Z,2.30
2022-09-20T05:10:36.514Z,2.17
2022-09-20T05:13:15.939Z,1.70
2022-09-20T05:15:52.898Z,2.00
2022-09-20T05:18:39.499Z,2.50
2022-09-20T05:21:10.865Z,2.23
2022-09-20T05:23:37.507Z,2.50
2022-09-20T05:26:09.626Z,2.47
2022-09-20T05:29:00.830Z,2.47
2022-09-20T05:31:41.721Z,2.30
2022-09-20T05:34:28.289Z,2.93
2022-09-20T05:37:04.099Z,2.47
2022-09-20T05:39:37.167Z,2.50
2022-09-20T05:42:07.913Z,2.53
2022-09-20T05:44:52.793Z,2.50
2022-09-20T05:47:23.391Z,2.47
2022-09-20T05:50:12.485Z,2.77
2022-09-20T05:52:43.211Z,2.70
2022-09-20T05:55:29.146Z,2.43
2022-09-20T05:58:06.507Z,2.47
2022-09-20T06:00:37.139Z,2.50
2022-09-20T06:03:04.435Z,2.33
2022-09-20T06:05:40.241Z,3.40
2022-09-20T06:08:18.337Z,3.27
2022-09-20T06:11:08.535Z,3.13
2022-09-20T06:13:59.782Z,3.80
2022-09-20T06:16:33.779Z,3.30
2022-09-20T06:19:15.018Z,3.00
2022-09-20T06:21:52.794Z,3.07
2022-09-20T06:24:29.127Z,3.07
2022-09-20T06:26:56.841Z,3.53
2022-09-20T06:29:29.796Z,3.47
2022-09-20T06:31:56.424Z,3.40
2022-09-20T06:34:22.988Z,3.57
2022-09-20T06:37:12.777Z,3.40
2022-09-20T06:40:02.898Z,3.47
2022-09-20T06:42:30.062Z,3.63
2022-09-20T06:44:56.917Z,3.80
2022-09-20T06:47:23.655Z,3.43
2022-09-20T06:49:53.639Z,3.47
2022-09-20T06:52:22.335Z,4.07
2022-09-20T06:54:54.263Z,3.50
2022-09-20T06:57:27.696Z,3.70
2022-09-20T06:59:54.423Z,3.17
2022-09-20T07:02:21.931Z,3.43
2022-09-20T07:04:55.353Z,3.10
2022-09-20T07:07:22.076Z,3.00
2022-09-20T07:09:48.798Z,3.77
2022-09-20T07:12:15.519Z,3.13
2022-09-20T07:14:43.175Z,2.77
2022-09-20T07:17:09.715Z,3.23
2022-09-20T07:19:36.857Z,3.23
2022-09-20T07:22:03.847Z,2.80
2022-09-20T07:24:32.285Z,2.83
2022-09-20T07:27:00.985Z,3.17
2022-09-20T07:29:28.869Z,3.20
2022-09-20T07:31:56.573Z,3.13
2022-09-20T07:34:23.135Z,2.80
2022-09-20T07:36:52.955Z,2.87
2022-09-20T07:39:19.484Z,2.83
2022-09-20T07:41:51.238Z,2.80
2022-09-20T07:44:24.535Z,2.50
2022-09-20T07:46:52.312Z,2.50
2022-09-20T07:49:19.567Z,2.23
2022-09-20T07:51:46.514Z,2.57
2022-09-20T07:54:13.136Z,2.77
2022-09-20T07:56:39.888Z,2.60
2022-09-20T07:59:06.831Z,2.10
2022-09-20T08:01:33.583Z,2.17
2022-09-20T08:04:00.225Z,2.33
2022-09-20T08:06:27.767Z,1.83
2022-09-20T08:08:55.489Z,2.20
2022-09-20T08:11:28.631Z,2.10
2022-09-20T08:14:11.347Z,2.17
2022-09-20T08:16:39.465Z,1.93
2022-09-20T08:19:06.583Z,2.50
2022-09-20T08:21:34.216Z,2.13
2022-09-20T08:24:01.543Z,2.37
2022-09-20T08:26:29.425Z,2.30
2022-09-20T08:28:56.807Z,2.10
2022-09-20T08:31:26.940Z,1.97
2022-09-20T08:33:54.453Z,2.07
2022-09-20T08:36:22.456Z,1.80
2022-09-20T08:41:39.283Z,1.93
2022-09-20T08:44:07.836Z,1.77
2022-09-20T08:46:38.062Z,1.80
2022-09-20T08:49:10.961Z,1.73
2022-09-20T08:51:42.927Z,1.80
2022-09-20T08:54:16.437Z,1.70
2022-09-20T08:56:47.074Z,1.80
2022-09-20T08:59:15.967Z,1.57
2022-09-20T09:01:43.279Z,1.70
2022-09-20T09:08:11.345Z,2.03
2022-09-20T09:10:46.113Z,1.80
2022-09-20T09:13:21.937Z,1.80
2022-09-20T09:15:53.004Z,1.90
2022-09-20T09:18:19.642Z,1.60
2022-09-20T09:20:47.312Z,1.47
2022-09-20T09:23:25.244Z,1.70
2022-09-20T09:25:53.481Z,1.67
2022-09-20T09:28:24.603Z,1.90
2022-09-20T09:30:53.827Z,1.70
2022-09-20T09:33:25.392Z,1.50
2022-09-20T09:36:09.746Z,1.90
2022-09-20T09:38:38.094Z,1.57
2022-09-20T09:41:05.883Z,1.80
2022-09-20T09:43:38.373Z,1.67
2022-09-20T09:46:19.034Z,1.40
2022-09-20T09:48:50.888Z,1.30
2022-09-20T09:51:19.297Z,1.63
2022-09-20T09:53:47.129Z,1.60
2022-09-20T09:56:35.821Z,1.33
2022-09-20T09:59:10.560Z,1.60
2022-09-20T10:02:03.979Z,1.30
2022-09-20T10:04:52.543Z,1.30
2022-09-20T10:07:25.149Z,1.30
2022-09-20T10:10:01.705Z,1.60
2022-09-20T10:12:32.828Z,1.50
2022-09-20T10:15:14.324Z,1.27
2022-09-20T10:17:51.754Z,1.00
2022-09-20T10:20:37.209Z,1.00
2022-09-20T10:23:39.803Z,1.13
2022-09-20T10:26:14.052Z,1.10
2022-09-20T10:29:08.402Z,1.10
2022-09-20T10:31:35.692Z,1.10
2022-09-20T10:34:25.378Z,1.50
2022-09-20T10:36:53.852Z,1.10
2022-09-20T10:39:30.974Z,1.07
2022-09-20T10:42:43.064Z,1.13
2022-09-20T10:46:03.379Z,1.10
2022-09-20T10:48:28.746Z,1.40
2022-09-20T10:51:00.163Z,1.33
2022-09-20T10:53:48.965Z,1.10
2022-09-20T10:56:25.662Z,1.20
2022-09-20T11:02:52.012Z,1.17
2022-09-20T11:05:31.156Z,1.13
2022-09-20T11:08:15.358Z,1.10
2022-09-20T11:11:01.906Z,0.80
2022-09-20T11:13:45.820Z,1.20
2022-09-20T11:16:33.906Z,1.27
2022-09-20T11:19:05.984Z,1.27
2022-09-20T11:21:42.637Z,1.20
2022-09-20T11:24:19.708Z,1.37
2022-09-20T11:26:51.616Z,1.30
2022-09-20T11:29:26.866Z,1.17
2022-09-20T11:31:55.796Z,1.20
2022-09-20T11:37:06.763Z,1.40
2022-09-20T11:39:39.613Z,1.30
2022-09-20T11:42:18.305Z,1.50
2022-09-20T11:44:44.987Z,1.17
2022-09-20T11:47:42.933Z,0.87
2022-09-20T11:50:27.127Z,1.10
2022-09-20T11:53:13.611Z,1.30
2022-09-20T11:55:54.697Z,0.93
2022-09-20T11:58:23.840Z,1.57
2022-09-20T12:00:51.938Z,1.50
2022-09-20T12:03:35.238Z,1.47
2022-09-20T12:06:19.704Z,1.40
2022-09-20T12:08:49.185Z,1.30
2022-09-20T12:11:16.369Z,0.93
2022-09-20T12:13:52.881Z,1.00
2022-09-20T12:16:37.369Z,0.77
2022-09-20T12:19:08.028Z,0.90
2022-09-20T12:21:53.833Z,0.73
2022-09-20T12:24:21.876Z,0.80
2022-09-20T12:26:49.011Z,0.77
2022-09-20T12:29:26.001Z,0.80
2022-09-20T12:31:54.655Z,0.97
2022-09-20T12:34:21.267Z,1.30
2022-09-20T12:36:52.198Z,0.83
2022-09-20T12:39:26.320Z,0.77
2022-09-20T12:41:58.253Z,0.90
2022-09-20T12:44:28.148Z,0.77
2022-09-20T12:46:57.155Z,0.80
2022-09-20T12:49:42.447Z,0.70
2022-09-20T12:52:46.275Z,0.90
2022-09-20T12:55:33.713Z,0.73
2022-09-20T12:58:06.189Z,0.60
2022-09-20T13:00:36.671Z,0.90
2022-09-20T13:03:12.772Z,0.87
2022-09-20T13:05:40.538Z,0.70
2022-09-20T13:08:22.310Z,0.80
2022-09-20T13:10:52.865Z,0.60
2022-09-20T13:13:31.914Z,0.60
2022-09-20T13:15:59.712Z,0.70
2022-09-20T13:18:27.734Z,1.03
2022-09-20T13:20:56.785Z,0.70
2022-09-20T13:23:28.495Z,0.70
2022-09-20T13:25:58.200Z,1.13
2022-09-20T13:28:34.091Z,0.90
2022-09-20T13:31:21.016Z,1.17
2022-09-20T13:33:48.253Z,1.03
2022-09-20T13:36:15.561Z,1.17
2022-09-20T13:38:43.436Z,1.10
2022-09-20T13:41:12.992Z,1.10
2022-09-20T13:43:44.022Z,1.10
2022-09-20T13:46:12.193Z,1.50
2022-09-20T13:48:39.248Z,1.00
2022-09-20T13:51:19.600Z,1.10
2022-09-20T13:53:47.530Z,1.43
2022-09-20T13:56:25.700Z,0.90
2022-09-20T13:58:52.825Z,0.97
2022-09-20T14:01:22.629Z,0.80
2022-09-20T14:03:49.938Z,0.80
2022-09-20T14:06:16.647Z,0.80
2022-09-20T14:08:54.801Z,0.83
2022-09-20T14:11:33.722Z,0.90
2022-09-20T14:14:01.806Z,0.77
2022-09-20T14:16:33.071Z,0.70
2022-09-20T14:19:01.184Z,0.73
2022-09-20T14:21:28.636Z,0.60
2022-09-20T14:24:02.912Z,0.77
2022-09-20T14:26:36.623Z,0.60
2022-09-20T14:29:21.975Z,1.07
2022-09-20T14:31:49.600Z,0.50
2022-09-20T14:34:16.194Z,0.80
2022-09-20T14:36:43.776Z,0.90
2022-09-20T14:39:15.491Z,0.80
2022-09-20T14:41:43.615Z,3.40
2022-09-20T14:44:30.031Z,0.80
2022-09-20T14:47:00.936Z,0.90
2022-09-20T14:49:27.524Z,1.07
2022-09-20T14:51:55.073Z,0.80
2022-09-20T14:54:25.555Z,0.80
2022-09-20T14:56:57.399Z,1.00
2022-09-20T14:59:26.062Z,1.10
2022-09-20T15:02:03.984Z,0.60
2022-09-20T15:04:33.525Z,0.80
2022-09-20T15:07:01.857Z,0.93
2022-09-20T15:09:32.775Z,1.33
2022-09-20T15:12:00.599Z,1.00
2022-09-20T15:14:27.383Z,0.90
2022-09-20T15:16:54.174Z,0.70
2022-09-20T15:19:20.699Z,0.90
2022-09-20T15:21:47.245Z,0.80
2022-09-20T15:24:14.832Z,1.00
2022-09-20T15:26:41.981Z,1.37
2022-09-20T15:29:10.105Z,1.03
2022-09-20T15:31:36.758Z,0.90
2022-09-20T15:34:06.126Z,0.90
2022-09-20T15:36:32.758Z,1.00
2022-09-20T15:38:59.523Z,1.03
2022-09-20T15:41:29.194Z,0.93
2022-09-20T15:43:57.835Z,0.90
2022-09-20T15:46:27.095Z,1.10
2022-09-20T15:48:54.764Z,0.90
2022-09-20T15:51:21.391Z,1.07
2022-09-20T15:53:58.901Z,1.07
2022-09-20T15:56:30.505Z,0.87
2022-09-20T15:59:02.907Z,0.80
2022-09-20T16:01:33.646Z,1.10
2022-09-20T16:04:00.373Z,0.93
2022-09-20T16:06:26.994Z,0.90
2022-09-20T16:08:55.498Z,1.30
2022-09-20T16:11:28.816Z,7.00
2022-09-20T16:13:59.916Z,3.37
2022-09-20T16:16:27.456Z,2.33
2022-09-20T16:19:13.468Z,2.80
2022-09-20T16:24:49.653Z,2.90
2022-09-20T16:30:03.661Z,1.33
2022-09-20T16:32:31.797Z,0.90
2022-09-20T16:35:07.956Z,1.00
2022-09-20T16:37:42.308Z,1.20
2022-09-20T16:40:14.129Z,0.87
2022-09-20T16:42:43.808Z,1.60
2022-09-20T16:45:18.102Z,1.20
2022-09-20T16:47:48.428Z,0.93
2022-09-20T16:50:17.908Z,1.10
2022-09-20T16:52:44.878Z,1.13
2022-09-20T16:55:14.995Z,1.40
2022-09-20T16:57:41.676Z,1.10
2022-09-20T17:00:08.670Z,1.63
2022-09-20T17:02:36.325Z,0.93
2022-09-20T17:05:03.237Z,1.10
2022-09-20T17:07:32.973Z,1.57
2022-09-20T17:10:02.156Z,1.00
2022-09-20T17:12:33.225Z,1.40
2022-09-20T17:15:00.018Z,1.13
2022-09-20T17:17:26.674Z,1.20
2022-09-20T17:19:53.434Z,1.27
2022-09-20T17:22:20.165Z,1.13
2022-09-20T17:24:47.337Z,1.20
2022-09-20T17:27:14.293Z,0.87
2022-09-20T17:29:43.241Z,1.00
2022-09-20T17:32:09.956Z,1.00
2022-09-20T17:34:36.694Z,0.97
2022-09-20T17:37:03.579Z,1.00
2022-09-20T17:39:30.184Z,1.10
2022-09-20T17:41:56.776Z,1.10
2022-09-20T17:44:27.800Z,1.30
2022-09-20T17:46:54.965Z,1.20
2022-09-20T17:49:22.160Z,0.90
2022-09-20T17:51:54.819Z,1.20
2022-09-20T17:54:22.093Z,1.43
2022-09-20T17:56:50.355Z,1.50
2022-09-20T17:59:17.626Z,1.40
2022-09-20T18:01:46.329Z,1.50
2022-09-20T18:04:21.002Z,1.50
2022-09-20T18:06:50.532Z,1.27
2022-09-20T18:09:18.576Z,1.30
2022-09-20T18:11:46.837Z,1.70
2022-09-20T18:14:13.975Z,2.23
2022-09-20T18:16:42.253Z,2.00
2022-09-20T18:19:09.341Z,1.40
2022-09-20T18:21:38.059Z,1.50
2022-09-20T18:24:11.667Z,1.70
2022-09-20T18:26:39.122Z,1.73
2022-09-20T18:29:12.250Z,2.07
2022-09-20T18:31:45.333Z,1.53
2022-09-20T18:34:17.668Z,3.30
2022-09-20T18:36:52.619Z,2.20
2022-09-20T18:39:26.691Z,1.87
2022-09-20T18:41:54.085Z,2.30
2022-09-20T18:44:22.020Z,2.10
2022-09-20T18:46:53.600Z,2.20
2022-09-20T18:49:22.072Z,2.27
2022-09-20T18:51:48.946Z,1.93
2022-09-20T18:54:15.940Z,1.90
2022-09-20T18:56:46.358Z,1.90
2022-09-20T18:59:14.861Z,2.40
2022-09-20T19:01:52.064Z,1.67
2022-09-20T19:04:29.269Z,2.10
2022-09-20T19:07:14.436Z,2.20
2022-09-20T19:09:50.295Z,2.00
2022-09-20T19:12:20.196Z,1.70
2022-09-20T19:14:54.274Z,1.90
2022-09-20T19:17:24.572Z,2.00
2022-09-20T19:19:54.712Z,2.00
2022-09-20T19:22:49.944Z,2.10
2022-09-20T19:25:40.846Z,1.80
2022-09-20T19:28:10.141Z,1.87
2022-09-20T19:30:37.420Z,1.87
2022-09-20T19:33:04.105Z,1.93
2022-09-20T19:35:34.778Z,2.10
2022-09-20T19:38:15.541Z,1.90
2022-09-20T19:40:47.033Z,1.90
2022-09-20T19:43:35.290Z,2.30
2022-09-20T19:46:17.493Z,2.23
2022-09-20T19:48:52.057Z,1.97
2022-09-20T19:51:19.950Z,2.07
2022-09-20T19:53:46.617Z,2.10
2022-09-20T19:56:16.171Z,2.10
2022-09-20T19:58:45.372Z,2.10
2022-09-20T20:01:12.121Z,3.20
2022-09-20T20:03:39.276Z,2.90
2022-09-20T20:06:20.108Z,2.73
2022-09-20T20:08:54.999Z,2.37
2022-09-20T20:11:27.854Z,2.93
2022-09-20T20:14:03.936Z,3.77
2022-09-20T20:16:34.262Z,2.93
2022-09-20T20:19:30.194Z,2.80
2022-09-20T20:22:05.047Z,2.73
2022-09-20T20:24:52.121Z,2.90
2022-09-20T20:27:20.516Z,2.20
2022-09-20T20:29:47.318Z,2.20
2022-09-20T20:32:15.110Z,2.23
2022-09-20T20:34:42.051Z,2.03
2022-09-20T20:37:09.332Z,2.20
2022-09-20T20:39:36.133Z,2.23
2022-09-20T20:42:04.249Z,1.97
2022-09-20T20:44:31.377Z,2.40
2022-09-20T20:46:58.146Z,2.27
2022-09-20T20:49:24.931Z,2.27
2022-09-20T20:51:51.558Z,2.73
2022-09-20T20:54:18.138Z,2.53
2022-09-20T20:56:47.098Z,2.40
2022-09-20T20:59:14.361Z,2.50
2022-09-20T21:01:42.911Z,2.83
2022-09-20T21:04:09.885Z,2.37
2022-09-20T21:06:37.145Z,2.57
2022-09-20T21:09:04.942Z,2.73
2022-09-20T21:11:38.664Z,2.40
2022-09-20T21:14:07.205Z,2.87
2022-09-20T21:16:42.910Z,2.67
2022-09-20T21:19:13.212Z,3.20
2022-09-20T21:21:42.333Z,2.77
2022-09-20T21:24:10.041Z,2.23
2022-09-20T21:26:38.982Z,2.27
2022-09-20T21:29:11.146Z,2.60
2022-09-20T21:31:39.683Z,2.70
2022-09-20T21:34:07.081Z,2.33
2022-09-20T21:36:35.020Z,3.20
2022-09-20T21:39:01.737Z,3.20
2022-09-20T21:41:32.951Z,2.73
2022-09-20T21:44:00.529Z,3.20
2022-09-20T21:46:31.052Z,3.17
2022-09-20T21:48:59.657Z,2.80
2022-09-20T21:51:32.232Z,2.93
2022-09-20T21:54:01.329Z,2.73
2022-09-20T21:56:34.744Z,3.20
2022-09-20T21:59:03.948Z,2.67
2022-09-20T22:01:35.011Z,3.13
2022-09-20T22:04:09.765Z,2.60
2022-09-20T22:06:38.102Z,2.80
2022-09-20T22:09:06.073Z,2.80
2022-09-20T22:11:36.092Z,2.93
2022-09-20T22:14:03.171Z,2.90
2022-09-20T22:16:31.133Z,2.63
2022-09-20T22:18:59.773Z,2.80
2022-09-20T22:21:27.951Z,2.33
2022-09-20T22:23:58.562Z,2.63
2022-09-20T22:26:26.896Z,2.53
2022-09-20T22:28:53.462Z,2.77
2022-09-20T22:31:22.005Z,3.37
2022-09-20T22:33:50.198Z,2.87
2022-09-20T22:36:20.043Z,3.43
2022-09-20T22:38:46.765Z,2.93
2022-09-20T22:41:14.351Z,2.77
2022-09-20T22:43:42.112Z,2.30
2022-09-20T22:46:15.034Z,2.40
2022-09-20T22:48:42.045Z,2.37
2022-09-20T22:51:09.806Z,2.60
2022-09-20T22:53:36.850Z,2.50
2022-09-20T22:56:06.558Z,1.90
2022-09-20T22:58:37.209Z,2.50
2022-09-20T23:01:07.854Z,2.17
2022-09-20T23:03:34.644Z,2.70
2022-09-20T23:06:02.960Z,2.33
2022-09-20T23:08:33.131Z,2.67
2022-09-20T23:11:00.580Z,2.60
2022-09-20T23:13:28.628Z,2.90
2022-09-20T23:15:55.090Z,2.67
2022-09-20T23:18:22.295Z,2.20
2022-09-20T23:20:48.878Z,2.40
2022-09-20T23:23:23.529Z,2.40
2022-09-20T23:25:50.750Z,2.50
2022-09-20T23:28:18.163Z,2.33
2022-09-20T23:30:44.687Z,2.20
2022-09-20T23:33:12.091Z,2.50
2022-09-20T23:35:45.442Z,2.10
2022-09-20T23:38:14.135Z,2.30
2022-09-20T23:40:40.829Z,2.30
2022-09-20T23:43:07.387Z,2.50
2022-09-20T23:45:33.865Z,2.37
2022-09-20T23:48:00.462Z,2.80
2022-09-20T23:50:26.959Z,2.30
2022-09-20T23:52:55.830Z,2.60
2022-09-20T23:55:22.305Z,2.50
2022-09-20T23:57:53.223Z,2.33
